createdAt,value
2023-01-23T00:01:08.852Z,8.30
2023-01-23T00:03:35.369Z,8.52
2023-01-23T00:06:07.660Z,8.07
2023-01-23T00:08:35.293Z,8.45
2023-01-23T00:11:05.845Z,8.57
2023-01-23T00:13:32.373Z,7.88
2023-01-23T00:15:58.887Z,8.57
2023-01-23T00:18:25.330Z,8.45
2023-01-23T00:20:51.848Z,9.13
2023-01-23T00:23:18.307Z,9.45
2023-01-23T00:25:44.775Z,9.13
2023-01-23T00:28:11.547Z,8.95
2023-01-23T00:30:38.031Z,8.75
2023-01-23T00:33:04.494Z,8.60
2023-01-23T00:35:31.090Z,8.75
2023-01-23T00:37:57.963Z,9.35
2023-01-23T00:40:24.541Z,9.55
2023-01-23T00:42:51.000Z,9.00
2023-01-23T00:45:17.731Z,8.82
2023-01-23T00:47:45.201Z,9.35
2023-01-23T00:50:11.905Z,9.93
2023-01-23T00:52:38.332Z,9.52
2023-01-23T00:55:05.452Z,9.63
2023-01-23T00:57:32.061Z,9.02
2023-01-23T00:59:58.528Z,9.63
2023-01-23T01:02:25.507Z,9.38
2023-01-23T01:04:52.894Z,9.60
2023-01-23T01:07:19.421Z,9.75
2023-01-23T01:09:47.219Z,9.63
2023-01-23T01:12:16.339Z,8.98
2023-01-23T01:14:42.838Z,10.15
2023-01-23T01:17:09.349Z,9.55
2023-01-23T01:19:36.387Z,9.30
2023-01-23T01:22:02.971Z,9.85
2023-01-23T01:24:29.558Z,9.43
2023-01-23T01:26:56.032Z,10.38
2023-01-23T01:29:23.097Z,9.73
2023-01-23T01:31:49.563Z,9.65
2023-01-23T01:34:16.081Z,9.60
2023-01-23T01:36:42.895Z,10.23
2023-01-23T01:39:09.357Z,9.68
2023-01-23T01:41:36.377Z,9.52
2023-01-23T01:44:03.274Z,9.73
2023-01-23T01:46:31.014Z,9.40
2023-01-23T01:49:08.137Z,9.15
2023-01-23T01:51:40.596Z,9.73
2023-01-23T01:54:40.825Z,9.32
2023-01-23T01:57:27.336Z,9.07
2023-01-23T02:00:04.547Z,9.43
2023-01-23T02:02:58.874Z,8.88
2023-01-23T02:05:35.589Z,9.45
2023-01-23T02:08:10.895Z,9.60
2023-01-23T02:10:38.327Z,8.68
2023-01-23T02:13:33.610Z,8.93
2023-01-23T02:16:11.475Z,9.25
2023-01-23T02:18:42.628Z,8.95
2023-01-23T02:21:09.469Z,9.65
2023-01-23T02:24:03.723Z,9.55
2023-01-23T02:26:43.926Z,9.80
2023-01-23T02:29:11.192Z,9.57
2023-01-23T02:31:46.071Z,10.25
2023-01-23T02:34:14.514Z,10.05
2023-01-23T02:36:43.896Z,9.95
2023-01-23T02:39:19.227Z,9.85
2023-01-23T02:41:51.477Z,9.95
2023-01-23T02:44:26.617Z,10.00
2023-01-23T02:46:59.217Z,9.85
2023-01-23T02:49:27.104Z,10.50
2023-01-23T02:51:54.479Z,10.45
2023-01-23T02:54:21.450Z,10.18
2023-01-23T02:56:48.331Z,10.57
2023-01-23T02:59:34.332Z,9.98
2023-01-23T03:02:00.818Z,10.57
2023-01-23T03:04:27.233Z,10.30
2023-01-23T03:06:53.676Z,9.77
2023-01-23T03:09:20.275Z,10.73
2023-01-23T03:11:47.031Z,10.70
2023-01-23T03:14:16.027Z,10.43
2023-01-23T03:16:42.836Z,10.38
2023-01-23T03:19:10.139Z,9.60
2023-01-23T03:21:42.046Z,10.27
2023-01-23T03:24:11.348Z,10.63
2023-01-23T03:26:39.464Z,10.68
2023-01-23T03:29:25.603Z,10.63
2023-01-23T03:31:52.795Z,10.30
2023-01-23T03:34:22.024Z,10.40
2023-01-23T03:36:48.580Z,10.18
2023-01-23T03:39:34.227Z,10.70
2023-01-23T03:42:00.701Z,10.20
2023-01-23T03:44:29.585Z,10.50
2023-01-23T03:46:56.785Z,10.52
2023-01-23T03:49:23.826Z,10.35
2023-01-23T03:51:56.900Z,10.90
2023-01-23T03:54:23.451Z,10.60
2023-01-23T03:56:50.836Z,9.82
2023-01-23T03:59:43.040Z,10.65
2023-01-23T04:02:09.940Z,10.15
2023-01-23T04:04:36.502Z,10.10
2023-01-23T04:07:08.366Z,10.15
2023-01-23T04:09:36.805Z,9.90
2023-01-23T04:12:03.416Z,10.13
2023-01-23T04:14:37.117Z,10.57
2023-01-23T04:17:05.096Z,10.70
2023-01-23T04:19:31.571Z,9.98
2023-01-23T04:21:58.043Z,10.40
2023-01-23T04:24:24.568Z,10.13
2023-01-23T04:26:51.387Z,9.77
2023-01-23T04:29:17.979Z,9.98
2023-01-23T04:31:45.114Z,8.57
2023-01-23T04:34:13.088Z,8.75
2023-01-23T04:36:41.240Z,8.23
2023-01-23T04:39:08.134Z,7.90
2023-01-23T04:41:36.716Z,7.85
2023-01-23T04:44:22.270Z,8.15
2023-01-23T04:47:04.257Z,6.88
2023-01-23T04:49:30.724Z,7.65
2023-01-23T04:51:58.416Z,8.05
2023-01-23T04:54:25.895Z,7.10
2023-01-23T04:56:53.737Z,7.75
2023-01-23T04:59:21.532Z,8.02
2023-01-23T05:01:48.080Z,7.50
2023-01-23T05:04:16.288Z,6.97
2023-01-23T05:06:43.952Z,7.47
2023-01-23T05:09:12.537Z,7.47
2023-01-23T05:11:44.812Z,6.97
2023-01-23T05:14:12.907Z,7.65
2023-01-23T05:16:40.955Z,7.32
2023-01-23T05:19:16.510Z,6.80
2023-01-23T05:21:43.476Z,7.35
2023-01-23T05:24:14.822Z,8.02
2023-01-23T05:26:42.793Z,7.07
2023-01-23T05:29:09.352Z,8.20
2023-01-23T05:31:40.878Z,8.20
2023-01-23T05:34:30.743Z,9.15
2023-01-23T05:37:00.533Z,9.35
2023-01-23T05:39:27.884Z,9.43
2023-01-23T05:41:55.952Z,8.15
2023-01-23T05:44:30.846Z,8.02
2023-01-23T05:47:07.144Z,7.57
2023-01-23T05:49:33.885Z,7.65
2023-01-23T05:52:01.606Z,8.18
2023-01-23T05:54:28.343Z,7.95
2023-01-23T05:56:54.826Z,8.00
2023-01-23T05:59:40.062Z,7.40
2023-01-23T06:02:25.359Z,8.40
2023-01-23T06:05:10.774Z,8.13
2023-01-23T06:07:55.777Z,7.90
2023-01-23T06:10:23.393Z,8.10
2023-01-23T06:12:49.946Z,7.65
2023-01-23T06:15:16.467Z,7.78
2023-01-23T06:17:44.740Z,7.95
2023-01-23T06:20:12.461Z,7.57
2023-01-23T06:22:41.642Z,7.20
2023-01-23T06:25:11.692Z,7.38
2023-01-23T06:27:38.274Z,6.93
2023-01-23T06:30:08.329Z,7.45
2023-01-23T06:32:40.007Z,7.03
2023-01-23T06:35:08.619Z,7.00
2023-01-23T06:37:38.709Z,7.20
2023-01-23T06:40:06.729Z,7.50
2023-01-23T06:42:34.035Z,7.38
2023-01-23T06:45:00.915Z,6.85
2023-01-23T06:47:29.999Z,7.10
2023-01-23T06:50:01.837Z,6.85
2023-01-23T06:52:30.812Z,6.72
2023-01-23T06:54:57.274Z,6.95
2023-01-23T06:57:23.815Z,7.10
2023-01-23T06:59:50.723Z,7.00
2023-01-23T07:02:19.575Z,6.65
2023-01-23T07:04:49.378Z,7.63
2023-01-23T07:07:15.892Z,7.18
2023-01-23T07:09:43.060Z,7.15
2023-01-23T07:12:17.351Z,7.70
2023-01-23T07:14:44.668Z,7.22
2023-01-23T07:17:16.257Z,7.05
2023-01-23T07:19:42.762Z,7.22
2023-01-23T07:22:12.755Z,7.18
2023-01-23T07:24:39.915Z,6.85
2023-01-23T07:27:06.364Z,6.57
2023-01-23T07:29:32.758Z,6.95
2023-01-23T07:32:00.989Z,6.70
2023-01-23T07:34:28.041Z,7.10
2023-01-23T07:36:54.516Z,6.78
2023-01-23T07:39:20.956Z,6.47
2023-01-23T07:41:47.499Z,7.10
2023-01-23T07:44:18.511Z,6.93
2023-01-23T07:46:45.810Z,6.63
2023-01-23T07:49:12.781Z,6.90
2023-01-23T07:51:39.233Z,6.13
2023-01-23T07:54:06.107Z,6.82
2023-01-23T07:56:32.802Z,6.50
2023-01-23T07:58:59.868Z,7.10
2023-01-23T08:01:26.383Z,6.90
2023-01-23T08:03:53.384Z,6.10
2023-01-23T08:06:20.022Z,6.63
2023-01-23T08:08:49.587Z,6.75
2023-01-23T08:11:16.846Z,6.10
2023-01-23T08:13:43.267Z,6.40
2023-01-23T08:16:11.449Z,6.65
2023-01-23T08:18:39.861Z,6.55
2023-01-23T08:21:06.313Z,6.30
2023-01-23T08:23:34.475Z,5.82
2023-01-23T08:26:04.886Z,6.38
2023-01-23T08:28:31.822Z,7.13
2023-01-23T08:31:06.245Z,7.63
2023-01-23T08:33:34.161Z,6.82
2023-01-23T08:36:00.800Z,7.85
2023-01-23T08:38:27.400Z,7.93
2023-01-23T08:40:55.231Z,7.50
2023-01-23T08:43:21.797Z,7.55
2023-01-23T08:45:50.761Z,7.65
2023-01-23T08:48:17.758Z,7.63
2023-01-23T08:50:44.275Z,5.93
2023-01-23T08:53:10.837Z,7.43
2023-01-23T08:55:38.768Z,7.90
2023-01-23T08:58:09.660Z,6.78
2023-01-23T09:00:36.406Z,6.88
2023-01-23T09:03:03.373Z,6.88
2023-01-23T09:05:30.080Z,6.82
2023-01-23T09:07:57.034Z,6.57
2023-01-23T09:10:24.273Z,6.93
2023-01-23T09:12:51.860Z,7.65
2023-01-23T09:15:18.460Z,7.68
2023-01-23T09:17:45.037Z,9.70
2023-01-23T09:20:12.025Z,8.73
2023-01-23T09:22:38.447Z,8.57
2023-01-23T09:25:05.484Z,7.82
2023-01-23T09:27:31.967Z,8.15
2023-01-23T09:29:58.466Z,7.28
2023-01-23T09:32:25.136Z,7.22
2023-01-23T09:34:51.583Z,7.40
2023-01-23T09:37:18.054Z,7.70
2023-01-23T09:39:44.878Z,7.80
2023-01-23T09:42:33.079Z,8.38
2023-01-23T09:45:05.417Z,9.93
2023-01-23T09:47:36.841Z,10.15
2023-01-23T09:50:07.097Z,9.77
2023-01-23T09:52:37.196Z,11.23
2023-01-23T09:55:25.012Z,10.18
2023-01-23T09:57:56.920Z,9.40
2023-01-23T10:00:30.013Z,8.60
2023-01-23T10:02:56.829Z,7.63
2023-01-23T10:05:39.210Z,7.30
2023-01-23T10:08:44.559Z,7.70
2023-01-23T10:11:22.824Z,7.72
2023-01-23T10:14:04.251Z,7.45
2023-01-23T10:16:53.859Z,7.55
2023-01-23T10:19:35.491Z,8.30
2023-01-23T10:22:08.281Z,9.57
2023-01-23T10:24:50.660Z,7.82
2023-01-23T10:27:23.253Z,8.20
2023-01-23T10:30:05.430Z,7.65
2023-01-23T10:32:58.226Z,7.10
2023-01-23T10:35:36.272Z,8.32
2023-01-23T10:38:10.795Z,7.40
2023-01-23T10:40:55.820Z,7.60
2023-01-23T10:43:22.545Z,8.02
2023-01-23T10:45:49.766Z,7.65
2023-01-23T10:48:32.242Z,7.25
2023-01-23T10:50:59.887Z,7.07
2023-01-23T10:53:26.947Z,7.20
2023-01-23T10:55:57.339Z,7.15
2023-01-23T10:58:35.752Z,8.00
2023-01-23T11:01:02.818Z,8.95
2023-01-23T11:03:34.631Z,9.68
2023-01-23T11:06:17.618Z,7.13
2023-01-23T11:09:00.355Z,7.22
2023-01-23T11:11:28.804Z,7.63
2023-01-23T11:14:21.548Z,8.13
2023-01-23T11:17:00.200Z,7.97
2023-01-23T11:19:26.669Z,7.38
2023-01-23T11:21:58.559Z,6.47
2023-01-23T11:24:38.387Z,8.13
2023-01-23T11:27:17.875Z,14.30
2023-01-23T11:30:00.964Z,10.88
2023-01-23T11:32:29.360Z,7.43
2023-01-23T11:35:08.520Z,8.43
2023-01-23T11:40:10.140Z,7.47
2023-01-23T11:42:40.292Z,7.10
2023-01-23T11:45:43.845Z,7.68
2023-01-23T11:48:32.048Z,7.82
2023-01-23T11:51:08.926Z,7.47
2023-01-23T11:53:43.034Z,7.43
2023-01-23T11:56:21.106Z,7.45
2023-01-23T11:58:59.565Z,7.38
2023-01-23T12:01:49.316Z,7.63
2023-01-23T12:04:34.104Z,6.53
2023-01-23T12:07:03.669Z,7.50
2023-01-23T12:09:43.384Z,7.13
2023-01-23T12:12:30.861Z,8.00
2023-01-23T12:15:06.268Z,7.03
2023-01-23T12:17:40.759Z,6.75
2023-01-23T12:20:28.285Z,8.50
2023-01-23T12:23:24.604Z,7.57
2023-01-23T12:26:14.042Z,5.85
2023-01-23T12:28:53.152Z,6.15
2023-01-23T12:31:29.733Z,6.55
2023-01-23T12:34:02.195Z,6.25
2023-01-23T12:37:08.204Z,6.65
2023-01-23T12:39:58.927Z,5.40
2023-01-23T12:44:59.464Z,5.05
2023-01-23T12:47:34.475Z,5.57
2023-01-23T12:50:22.290Z,6.32
2023-01-23T12:52:59.349Z,6.38
2023-01-23T12:55:31.134Z,6.22
2023-01-23T12:58:08.158Z,5.65
2023-01-23T13:01:01.546Z,6.18
2023-01-23T13:03:51.653Z,5.90
2023-01-23T13:06:41.560Z,6.15
2023-01-23T13:09:18.769Z,6.53
2023-01-23T13:12:22.835Z,6.63
2023-01-23T13:15:34.242Z,6.80
2023-01-23T13:17:48.416Z,6.13
2023-01-23T13:20:36.257Z,6.20
2023-01-23T13:23:28.791Z,6.63
2023-01-23T13:26:16.595Z,6.18
2023-01-23T13:28:45.990Z,5.88
2023-01-23T13:31:45.179Z,6.50
2023-01-23T13:34:17.750Z,6.30
2023-01-23T13:36:48.154Z,6.32
2023-01-23T13:39:17.800Z,5.97
2023-01-23T13:41:47.958Z,5.75
2023-01-23T13:44:27.154Z,5.68
2023-01-23T14:24:57.601Z,6.30
2023-01-23T14:27:51.292Z,7.60
2023-01-23T14:30:24.508Z,6.65
2023-01-23T14:32:50.920Z,6.47
2023-01-23T14:35:33.740Z,6.93
2023-01-23T14:38:03.104Z,6.63
2023-01-23T14:43:18.275Z,10.20
2023-01-23T14:46:01.169Z,11.27
2023-01-23T14:48:27.917Z,12.07
2023-01-23T14:51:06.750Z,14.85
2023-01-23T14:53:33.171Z,7.25
2023-01-23T14:56:01.800Z,13.05
2023-01-23T14:58:28.760Z,24.90
2023-01-23T15:00:55.955Z,8.27
2023-01-23T15:03:42.670Z,11.57
2023-01-23T15:06:15.255Z,9.85
2023-01-23T15:08:42.431Z,10.48
2023-01-23T15:11:12.062Z,21.77
2023-01-23T15:13:43.056Z,12.50
2023-01-23T15:16:15.514Z,6.60
2023-01-23T15:19:00.464Z,6.60
2023-01-23T15:21:30.253Z,6.47
2023-01-23T15:24:08.912Z,6.38
2023-01-23T15:26:40.441Z,7.20
2023-01-23T15:29:06.839Z,7.07
2023-01-23T15:31:39.419Z,6.40
2023-01-23T15:34:14.880Z,6.72
2023-01-23T15:37:13.644Z,7.03
2023-01-23T15:39:49.701Z,6.40
2023-01-23T15:42:16.054Z,6.60
2023-01-23T15:44:43.219Z,6.25
2023-01-23T15:47:10.230Z,8.10
2023-01-23T15:49:39.534Z,6.95
2023-01-23T15:54:41.303Z,6.45
2023-01-23T15:57:11.982Z,21.13
2023-01-23T15:59:38.389Z,12.55
2023-01-23T16:02:08.113Z,9.35
2023-01-23T16:04:35.816Z,6.18
2023-01-23T16:07:06.531Z,7.15
2023-01-23T16:09:35.909Z,6.20
2023-01-23T16:14:28.696Z,14.75
2023-01-23T16:16:58.122Z,7.35
2023-01-23T16:19:26.611Z,6.30
2023-01-23T16:22:04.218Z,6.30
2023-01-23T16:24:35.336Z,6.72
2023-01-23T16:27:02.508Z,6.57
2023-01-23T16:29:31.373Z,10.45
2023-01-23T16:31:59.298Z,12.35
2023-01-23T16:34:26.155Z,18.55
2023-01-23T16:36:54.326Z,9.18
2023-01-23T16:39:24.695Z,9.88
2023-01-23T16:41:51.408Z,9.77
2023-01-23T16:44:18.815Z,8.05
2023-01-23T16:46:46.144Z,9.20
2023-01-23T16:49:13.521Z,9.15
2023-01-23T16:51:42.664Z,8.10
2023-01-23T16:54:18.836Z,8.48
2023-01-23T16:56:47.829Z,8.55
2023-01-23T16:59:17.491Z,8.40
2023-01-23T17:01:45.958Z,8.15
2023-01-23T17:04:15.679Z,7.93
2023-01-23T17:06:42.169Z,7.80
2023-01-23T17:09:10.398Z,7.60
2023-01-23T17:11:39.848Z,8.30
2023-01-23T17:14:15.081Z,7.70
2023-01-23T17:16:41.902Z,9.30
2023-01-23T17:19:34.734Z,7.70
2023-01-23T17:22:02.778Z,9.00
2023-01-23T17:24:29.390Z,7.10
2023-01-23T17:26:55.937Z,7.45
2023-01-23T17:29:22.883Z,7.25
2023-01-23T17:31:49.413Z,7.28
2023-01-23T17:34:21.301Z,6.95
2023-01-23T17:36:48.220Z,7.57
2023-01-23T17:39:14.823Z,7.45
2023-01-23T17:41:41.280Z,7.18
2023-01-23T17:44:07.739Z,17.33
2023-01-23T17:46:37.618Z,7.60
2023-01-23T17:49:05.354Z,9.73
2023-01-23T17:51:32.400Z,8.18
2023-01-23T17:53:58.924Z,7.97
2023-01-23T17:56:25.380Z,6.97
2023-01-23T17:58:51.826Z,8.23
2023-01-23T18:01:21.885Z,8.43
2023-01-23T18:03:49.740Z,7.78
2023-01-23T18:06:16.645Z,7.55
2023-01-23T18:08:43.189Z,7.90
2023-01-23T18:11:18.816Z,8.23
2023-01-23T18:13:54.441Z,9.15
2023-01-23T18:16:25.992Z,8.48
2023-01-23T18:19:13.076Z,8.40
2023-01-23T18:21:39.727Z,9.07
2023-01-23T18:24:06.677Z,9.27
2023-01-23T18:26:39.467Z,9.00
2023-01-23T18:29:20.541Z,8.73
2023-01-23T18:32:14.946Z,8.95
2023-01-23T18:34:59.802Z,11.13
2023-01-23T18:37:26.119Z,10.52
2023-01-23T18:40:20.794Z,9.40
2023-01-23T18:43:16.681Z,9.38
2023-01-23T18:45:43.444Z,9.77
2023-01-23T18:48:24.789Z,9.30
2023-01-23T18:50:59.259Z,8.80
2023-01-23T18:54:04.474Z,8.95
2023-01-23T18:56:34.111Z,8.73
2023-01-23T18:59:12.773Z,8.60
2023-01-23T19:01:50.144Z,9.38
2023-01-23T19:04:17.617Z,9.38
2023-01-23T19:06:44.744Z,9.65
2023-01-23T19:09:21.241Z,9.63
2023-01-23T19:12:14.013Z,9.60
2023-01-23T19:14:55.621Z,9.85
2023-01-23T19:17:36.673Z,10.00
2023-01-23T19:20:24.002Z,10.65
2023-01-23T19:23:12.305Z,9.98
2023-01-23T19:25:38.795Z,10.10
2023-01-23T19:28:07.016Z,10.40
2023-01-23T19:30:33.721Z,10.27
2023-01-23T19:33:00.328Z,10.18
2023-01-23T19:35:26.819Z,10.40
2023-01-23T19:37:53.310Z,10.85
2023-01-23T19:40:19.736Z,10.98
2023-01-23T19:42:54.326Z,10.35
2023-01-23T19:45:25.310Z,11.57
2023-01-23T19:47:53.222Z,11.05
2023-01-23T19:50:20.505Z,10.30
2023-01-23T19:52:48.452Z,11.40
2023-01-23T19:55:30.183Z,20.77
2023-01-23T19:57:57.012Z,15.73
2023-01-23T20:00:29.731Z,15.05
2023-01-23T20:02:56.497Z,13.07
2023-01-23T20:05:23.423Z,12.50
2023-01-23T20:07:50.207Z,10.88
2023-01-23T20:10:17.320Z,10.88
2023-01-23T20:12:46.159Z,9.82
2023-01-23T20:15:14.401Z,11.68
2023-01-23T20:17:41.356Z,10.70
2023-01-23T20:20:09.692Z,10.05
2023-01-23T20:22:36.220Z,9.85
2023-01-23T20:25:02.666Z,10.82
2023-01-23T20:27:29.224Z,9.38
2023-01-23T20:29:55.712Z,9.57
2023-01-23T20:32:22.186Z,11.25
2023-01-23T20:34:48.596Z,9.60
2023-01-23T20:37:15.000Z,9.73
2023-01-23T20:39:41.555Z,10.43
2023-01-23T20:42:09.448Z,10.95
2023-01-23T20:44:37.108Z,9.98
2023-01-23T20:47:03.570Z,10.57
2023-01-23T20:49:30.143Z,10.30
2023-01-23T20:52:16.659Z,10.43
2023-01-23T20:54:43.093Z,9.93
2023-01-23T20:57:09.630Z,10.90
2023-01-23T20:59:36.053Z,10.13
2023-01-23T21:02:21.079Z,10.20
2023-01-23T21:04:47.520Z,10.40
2023-01-23T21:07:13.977Z,10.63
2023-01-23T21:09:41.764Z,10.57
2023-01-23T21:12:08.818Z,10.18
2023-01-23T21:14:35.561Z,10.48
2023-01-23T21:17:02.402Z,10.90
2023-01-23T21:19:28.897Z,9.52
2023-01-23T21:21:55.573Z,10.00
2023-01-23T21:24:22.111Z,9.80
2023-01-23T21:26:48.698Z,10.00
2023-01-23T21:29:15.410Z,9.75
2023-01-23T21:31:42.013Z,9.75
2023-01-23T21:34:10.884Z,10.23
2023-01-23T21:36:37.779Z,10.05
2023-01-23T21:39:05.180Z,10.00
2023-01-23T21:41:31.914Z,9.70
2023-01-23T21:43:58.382Z,9.27
2023-01-23T21:46:24.899Z,10.13
2023-01-23T21:48:52.138Z,10.13
2023-01-23T21:51:21.411Z,10.40
2023-01-23T21:56:17.151Z,9.60
2023-01-23T21:58:43.715Z,10.70
2023-01-23T22:01:31.786Z,10.02
2023-01-23T22:04:04.395Z,9.82
2023-01-23T22:06:31.692Z,10.15
2023-01-23T22:08:58.182Z,9.40
2023-01-23T22:11:24.652Z,10.95
2023-01-23T22:13:51.179Z,10.45
2023-01-23T22:16:17.841Z,10.73
2023-01-23T22:18:44.472Z,10.85
2023-01-23T22:21:11.013Z,10.43
2023-01-23T22:23:37.474Z,10.80
2023-01-23T22:26:07.945Z,10.98
2023-01-23T22:28:35.031Z,10.65
2023-01-23T22:31:12.431Z,10.75
2023-01-23T22:33:41.129Z,11.38
2023-01-23T22:36:09.483Z,10.80
2023-01-23T22:38:36.099Z,11.52
2023-01-23T22:41:05.078Z,10.77
2023-01-23T22:43:32.286Z,11.57
2023-01-23T22:46:09.113Z,12.02
2023-01-23T22:48:36.129Z,11.77
2023-01-23T22:51:05.039Z,10.63
2023-01-23T22:53:31.919Z,11.50
2023-01-23T22:55:58.543Z,12.40
2023-01-23T22:58:25.103Z,11.65
2023-01-23T23:00:53.135Z,12.02
2023-01-23T23:03:21.208Z,12.05
2023-01-23T23:05:58.880Z,11.93
2023-01-23T23:08:25.360Z,11.07
2023-01-23T23:11:19.433Z,11.50
2023-01-23T23:13:46.120Z,11.43
2023-01-23T23:16:17.934Z,11.32
2023-01-23T23:18:46.252Z,12.23
2023-01-23T23:21:14.126Z,10.70
2023-01-23T23:23:40.531Z,11.05
2023-01-23T23:26:09.153Z,11.38
2023-01-23T23:28:36.490Z,11.40
2023-01-23T23:31:03.081Z,11.10
2023-01-23T23:33:29.925Z,11.18
2023-01-23T23:35:56.401Z,11.18
2023-01-23T23:38:23.173Z,10.80
2023-01-23T23:40:57.450Z,10.88
2023-01-23T23:43:24.412Z,10.38
2023-01-23T23:45:55.336Z,10.52
2023-01-23T23:48:22.331Z,10.45
2023-01-23T23:50:48.843Z,10.95
2023-01-23T23:53:15.391Z,10.55
2023-01-23T23:55:41.864Z,10.73
2023-01-23T23:58:08.405Z,10.40
